Time;durP1;ratioP1;P1;durP2;ratioP2;P2;SDS_P1;SDS_P2;PMS_P1;PMS_P2;Temp;Humidity;BMP_temperature;BMP_pressure;BME280_temperature;BME280_humidity;BME280_pressure;Samples;Min_cycle;Max_cycle;Signal;HPM_P1;HPM_P2
2022/05/17 00:02:12;;;;;;;14.90;6.18;;;16.90;99.90;;;;;;5107562;28;20503;-86
2022/05/17 00:04:38;;;;;;;19.00;6.25;;;16.80;99.90;;;;;;5075081;28;20119;-86
2022/05/17 00:07:05;;;;;;;20.73;6.85;;;16.80;99.90;;;;;;5089886;28;20107;-86
2022/05/17 00:09:31;;;;;;;18.00;6.60;;;16.70;99.90;;;;;;5090900;28;20039;-87
2022/05/17 00:11:57;;;;;;;10.48;5.45;;;16.70;99.90;;;;;;5092921;28;20364;-86
2022/05/17 00:14:23;;;;;;;13.82;6.40;;;16.70;99.90;;;;;;5126727;28;20731;-86
2022/05/17 00:16:49;;;;;;;16.45;5.95;;;16.60;99.90;;;;;;5072069;28;20039;-86
2022/05/17 00:19:19;;;;;;;15.40;6.32;;;16.60;99.90;;;;;;5090656;28;20134;-86
2022/05/17 00:21:45;;;;;;;20.17;5.97;;;16.60;99.90;;;;;;5091528;28;20063;-86
2022/05/17 00:24:12;;;;;;;13.45;5.78;;;16.50;99.90;;;;;;5072631;28;20491;-86
2022/05/17 00:26:38;;;;;;;18.20;6.72;;;16.50;99.90;;;;;;5108183;28;20044;-86
2022/05/17 00:29:05;;;;;;;12.18;5.78;;;16.50;99.90;;;;;;5108796;28;20031;-86
2022/05/17 00:31:31;;;;;;;14.50;6.13;;;16.50;99.90;;;;;;5107085;28;20106;-86
2022/05/17 00:33:57;;;;;;;15.85;6.35;;;16.50;99.90;;;;;;5072409;28;20052;-86
2022/05/17 00:36:23;;;;;;;15.48;6.40;;;16.40;99.90;;;;;;5091280;28;20075;-86
2022/05/17 00:38:50;;;;;;;12.93;5.70;;;16.40;99.90;;;;;;5093059;28;20399;-86
2022/05/17 00:41:16;;;;;;;15.85;6.20;;;16.30;99.90;;;;;;5092250;28;20039;-87
2022/05/17 00:46:48;;;;;;;14.65;5.95;;;16.20;99.90;;;;;;5107803;28;20044;-86
2022/05/17 00:49:50;;;;;;;16.52;6.32;;;16.20;99.90;;;;;;5092139;28;20044;-86
2022/05/17 00:52:28;;;;;;;17.42;5.93;;;15.80;99.90;;;;;;5089426;28;20063;-86
2022/05/17 00:55:01;;;;;;;15.65;5.97;;;16.10;99.90;;;;;;5109162;28;20514;-86
2022/05/17 00:57:49;;;;;;;15.13;6.38;;;16.00;99.90;;;;;;5093220;28;20040;-86
2022/05/17 01:00:19;;;;;;;17.15;6.53;;;15.90;99.90;;;;;;5095954;28;20038;-86
2022/05/17 01:02:49;;;;;;;14.93;6.28;;;15.90;99.90;;;;;;5092792;28;20405;-86
2022/05/17 01:05:17;;;;;;;14.30;6.15;;;15.90;99.90;;;;;;5110745;28;20098;-87
2022/05/17 01:07:48;;;;;;;13.88;5.90;;;15.90;99.90;;;;;;5094636;28;20383;-87
2022/05/17 01:10:14;;;;;;;18.08;6.35;;;15.80;99.90;;;;;;5094128;28;20028;-86
2022/05/17 01:12:40;;;;;;;13.55;6.25;;;15.80;99.90;;;;;;5111285;28;20114;-87
2022/05/17 01:15:11;;;;;;;12.48;6.18;;;15.80;99.90;;;;;;5073841;28;20430;-86
2022/05/17 01:17:40;;;;;;;15.40;6.50;;;15.80;99.90;;;;;;5093075;28;20093;-86
2022/05/17 01:20:11;;;;;;;14.15;6.28;;;15.80;99.90;;;;;;5111958;28;20047;-87
2022/05/17 01:22:37;;;;;;;14.43;6.63;;;15.70;99.90;;;;;;5095383;28;20043;-86
2022/05/17 01:25:03;;;;;;;13.02;6.22;;;15.70;99.90;;;;;;5072849;28;20046;-86
2022/05/17 01:27:43;;;;;;;18.42;6.82;;;15.90;99.90;;;;;;5109279;28;20040;-88
2022/05/17 01:30:17;;;;;;;14.68;6.63;;;15.70;99.90;;;;;;5111252;28;20487;-87
2022/05/17 01:32:42;;;;;;;12.45;6.63;;;15.70;99.90;;;;;;5108946;28;20055;-86
2022/05/17 01:35:09;;;;;;;13.90;5.82;;;15.60;99.90;;;;;;5095794;28;20044;-88
2022/05/17 01:37:34;;;;;;;18.50;6.22;;;15.60;99.90;;;;;;5094689;28;20044;-87
2022/05/17 01:40:00;;;;;;;19.13;6.45;;;15.60;99.90;;;;;;5095512;28;20487;-87
2022/05/17 01:42:26;;;;;;;17.08;6.57;;;15.50;99.90;;;;;;5094788;28;20039;-86
2022/05/17 01:44:52;;;;;;;16.23;6.70;;;15.50;99.90;;;;;;5093963;28;20176;-87
2022/05/17 01:47:18;;;;;;;14.35;6.07;;;15.50;99.90;;;;;;5093889;28;20483;-87
2022/05/17 01:49:43;;;;;;;15.23;6.13;;;15.50;99.90;;;;;;5109285;28;20024;-87
2022/05/17 01:52:09;;;;;;;15.18;6.07;;;15.40;99.90;;;;;;5093929;28;20390;-87
2022/05/17 01:54:35;;;;;;;16.67;6.30;;;15.40;99.90;;;;;;5092682;28;20046;-87
2022/05/17 01:57:01;;;;;;;13.23;6.38;;;15.30;99.90;;;;;;5093187;28;20031;-87
2022/05/17 01:59:27;;;;;;;16.55;6.57;;;15.30;99.90;;;;;;5091909;28;20079;-87
2022/05/17 02:01:53;;;;;;;13.15;6.20;;;15.30;99.90;;;;;;5077419;28;20063;-87
2022/05/17 02:04:19;;;;;;;15.00;6.10;;;15.20;99.90;;;;;;5110143;28;20043;-87
2022/05/17 02:06:44;;;;;;;15.13;6.72;;;15.20;99.90;;;;;;5092386;28;20049;-85
2022/05/17 02:09:10;;;;;;;13.32;6.75;;;15.20;99.90;;;;;;5109649;28;20024;-87
2022/05/17 02:11:36;;;;;;;13.10;6.20;;;15.20;99.90;;;;;;5110860;28;20036;-87
2022/05/17 02:14:02;;;;;;;14.80;6.30;;;15.10;99.90;;;;;;5092248;28;20089;-86
2022/05/17 02:16:28;;;;;;;18.85;6.57;;;15.10;99.90;;;;;;5055602;28;20126;-87
2022/05/17 02:18:53;;;;;;;17.80;6.75;;;15.00;99.90;;;;;;5108692;28;20051;-87
2022/05/17 02:21:19;;;;;;;17.48;6.82;;;15.00;99.90;;;;;;5109673;28;20476;-87
2022/05/17 02:23:45;;;;;;;19.85;6.78;;;15.00;99.90;;;;;;5093378;28;20487;-86
2022/05/17 02:26:11;;;;;;;15.13;6.55;;;15.00;99.90;;;;;;5109890;28;20031;-87
2022/05/17 02:28:36;;;;;;;14.05;6.55;;;14.90;99.90;;;;;;5110881;28;20077;-87
2022/05/17 02:31:02;;;;;;;22.30;7.20;;;14.90;99.90;;;;;;5110259;28;20040;-87
2022/05/17 02:33:28;;;;;;;12.00;6.22;;;14.90;99.90;;;;;;5111296;28;20529;-86
2022/05/17 02:35:53;;;;;;;17.27;7.32;;;15.00;99.90;;;;;;5108360;28;20044;-86
2022/05/17 02:38:19;;;;;;;15.15;6.70;;;14.90;99.90;;;;;;5093245;28;20035;-87
2022/05/17 02:40:45;;;;;;;14.43;7.25;;;14.90;99.90;;;;;;5093872;28;20051;-87
2022/05/17 02:43:13;;;;;;;12.85;7.13;;;14.90;99.90;;;;;;5060959;28;20058;-87
2022/05/17 02:45:39;;;;;;;15.18;6.68;;;14.80;99.90;;;;;;5092775;28;20046;-86
2022/05/17 02:48:05;;;;;;;19.55;7.18;;;14.90;99.90;;;;;;5112085;28;20454;-86
2022/05/17 02:50:32;;;;;;;15.00;6.50;;;14.90;99.90;;;;;;5086889;28;20123;-87
2022/05/17 02:52:58;;;;;;;15.13;6.88;;;14.80;99.90;;;;;;5053314;28;20773;-87
2022/05/17 02:55:24;;;;;;;15.15;6.55;;;14.80;99.90;;;;;;5076126;28;20073;-86
2022/05/17 02:57:49;;;;;;;16.27;6.88;;;14.80;99.90;;;;;;5092504;28;20071;-87
2022/05/17 03:00:16;;;;;;;15.80;7.30;;;14.70;99.90;;;;;;5071909;28;20528;-87
2022/05/17 03:02:42;;;;;;;21.60;7.88;;;14.70;99.90;;;;;;5092477;28;20031;-86
2022/05/17 03:05:10;;;;;;;16.08;6.85;;;14.70;99.90;;;;;;5110864;28;20039;-87
2022/05/17 03:07:35;;;;;;;14.48;6.95;;;14.70;99.90;;;;;;5068090;28;20040;-87
2022/05/17 03:10:01;;;;;;;16.00;6.63;;;14.70;99.90;;;;;;5071828;28;20023;-86
2022/05/17 03:12:27;;;;;;;15.65;6.97;;;14.60;99.90;;;;;;5109539;28;20031;-86
2022/05/17 03:14:53;;;;;;;17.75;6.90;;;14.60;99.90;;;;;;5092944;28;20080;-87
2022/05/17 03:17:19;;;;;;;14.95;7.53;;;14.60;99.90;;;;;;5073321;28;20031;-86
2022/05/17 03:19:44;;;;;;;16.52;7.38;;;14.50;99.90;;;;;;5110117;28;21359;-87
2022/05/17 03:22:11;;;;;;;14.95;7.40;;;14.50;99.90;;;;;;5093304;28;20035;-87
2022/05/17 03:24:37;;;;;;;14.32;6.95;;;14.50;99.90;;;;;;5093414;28;20082;-87
2022/05/17 03:27:03;;;;;;;22.38;7.80;;;14.50;99.90;;;;;;5110362;28;20036;-87
2022/05/17 03:29:29;;;;;;;14.77;7.40;;;14.50;99.90;;;;;;5111197;28;20479;-87
2022/05/17 03:31:55;;;;;;;15.50;6.55;;;14.40;99.90;;;;;;5109761;27;20122;-87
2022/05/17 03:34:21;;;;;;;17.52;7.45;;;14.40;99.90;;;;;;5079634;27;20058;-87
2022/05/17 03:36:47;;;;;;;14.55;7.35;;;14.40;99.90;;;;;;5111846;27;20183;-87
2022/05/17 03:39:14;;;;;;;19.63;7.82;;;14.40;99.90;;;;;;5096275;27;20118;-87
2022/05/17 03:41:40;;;;;;;16.42;7.63;;;14.40;99.90;;;;;;5095754;27;20124;-88
2022/05/17 03:44:05;;;;;;;17.83;8.02;;;14.40;99.90;;;;;;5063662;28;20077;-87
2022/05/17 03:46:31;;;;;;;13.50;6.80;;;14.30;99.90;;;;;;5114761;28;20058;-86
2022/05/17 03:48:59;;;;;;;16.30;8.13;;;14.30;99.90;;;;;;5096411;27;20046;-87
2022/05/17 03:51:25;;;;;;;17.88;8.55;;;14.30;99.90;;;;;;5115753;27;20043;-86
2022/05/17 03:53:51;;;;;;;12.77;7.55;;;14.30;99.90;;;;;;5114297;27;20046;-86
2022/05/17 03:56:17;;;;;;;15.10;8.05;;;14.20;99.90;;;;;;5076226;27;20032;-86
2022/05/17 03:58:43;;;;;;;14.85;8.10;;;14.20;99.90;;;;;;5112800;28;20043;-87
2022/05/17 04:01:10;;;;;;;13.27;7.40;;;14.20;99.90;;;;;;5096559;28;20062;-87
2022/05/17 04:03:37;;;;;;;13.40;7.53;;;14.20;99.90;;;;;;5128420;28;20085;-87
2022/05/17 04:06:03;;;;;;;16.73;7.35;;;14.20;99.90;;;;;;5074407;28;20114;-86
2022/05/17 04:08:29;;;;;;;15.25;7.57;;;14.20;99.90;;;;;;5111323;28;20102;-87
2022/05/17 04:10:55;;;;;;;16.63;7.50;;;14.20;99.90;;;;;;5109771;28;20114;-87
2022/05/17 04:13:23;;;;;;;13.20;8.05;;;14.20;99.90;;;;;;5102821;28;20528;-87
2022/05/17 04:15:49;;;;;;;14.32;7.45;;;14.20;99.90;;;;;;5116904;28;20068;-86
2022/05/17 04:18:15;;;;;;;20.10;7.70;;;14.30;99.90;;;;;;5075041;28;20036;-86
2022/05/17 04:20:40;;;;;;;16.67;7.90;;;14.30;99.90;;;;;;5118579;28;20039;-86
2022/05/17 04:23:09;;;;;;;14.38;7.80;;;14.30;99.90;;;;;;5134342;28;20023;-86
2022/05/17 04:25:35;;;;;;;18.88;7.88;;;14.30;99.90;;;;;;5119320;28;20054;-86
2022/05/17 04:28:01;;;;;;;14.23;7.32;;;14.30;99.90;;;;;;5110033;28;20383;-86
2022/05/17 04:30:27;;;;;;;16.10;7.93;;;14.30;99.90;;;;;;5095079;28;20031;-87
2022/05/17 04:32:53;;;;;;;17.17;7.53;;;14.30;99.90;;;;;;5080315;27;20082;-87
2022/05/17 04:35:19;;;;;;;16.42;7.57;;;14.40;99.90;;;;;;5098263;27;20043;-86
2022/05/17 04:37:45;;;;;;;16.88;7.97;;;14.40;99.90;;;;;;5118173;27;20103;-87
2022/05/17 04:40:13;;;;;;;13.73;7.97;;;14.50;99.90;;;;;;5085636;27;20526;-86
2022/05/17 04:42:40;;;;;;;12.55;7.20;;;14.50;99.90;;;;;;5118578;27;20061;-86
2022/05/17 04:45:09;;;;;;;15.35;7.40;;;14.60;99.90;;;;;;5118377;27;20546;-87
2022/05/17 04:47:37;;;;;;;14.98;7.13;;;14.60;99.90;;;;;;5117556;27;20043;-86
2022/05/17 04:50:04;;;;;;;17.65;7.70;;;14.70;99.90;;;;;;5114827;27;20047;-86
2022/05/17 04:52:29;;;;;;;15.25;7.07;;;14.70;99.90;;;;;;5116826;27;20032;-87
2022/05/17 04:54:55;;;;;;;20.25;7.70;;;14.80;99.90;;;;;;5099598;27;20035;-87
2022/05/17 04:57:21;;;;;;;23.48;7.65;;;14.90;99.90;;;;;;5097457;27;20031;-87
2022/05/17 04:59:46;;;;;;;16.55;7.63;;;14.90;99.90;;;;;;5116293;27;20844;-87
2022/05/17 05:02:12;;;;;;;18.92;7.28;;;15.00;99.90;;;;;;5100118;27;20034;-86
2022/05/17 05:04:41;;;;;;;16.15;7.35;;;15.10;99.90;;;;;;5079154;27;20035;-87
2022/05/17 05:07:07;;;;;;;12.88;7.03;;;15.10;99.90;;;;;;5074695;27;20505;-87
2022/05/17 05:09:33;;;;;;;19.02;7.72;;;15.20;99.90;;;;;;5100523;27;20039;-88
2022/05/17 05:11:59;;;;;;;17.27;7.88;;;15.20;99.90;;;;;;5085396;27;20035;-88
2022/05/17 05:14:26;;;;;;;17.80;6.93;;;15.30;99.90;;;;;;5118739;27;20027;-87
2022/05/17 05:16:52;;;;;;;14.90;6.70;;;15.30;99.90;;;;;;5116244;27;20039;-88
2022/05/17 05:19:18;;;;;;;13.00;7.22;;;15.30;99.90;;;;;;5099738;27;20081;-88
2022/05/17 05:21:44;;;;;;;18.13;6.75;;;15.30;99.90;;;;;;5099163;27;20050;-87
2022/05/17 05:24:11;;;;;;;17.92;7.80;;;15.30;99.90;;;;;;5117186;27;20038;-88
2022/05/17 05:26:38;;;;;;;16.52;7.43;;;15.30;99.90;;;;;;5116288;27;20057;-87
2022/05/17 05:29:05;;;;;;;16.00;7.10;;;15.30;99.90;;;;;;5115970;27;20032;-87
2022/05/17 05:31:30;;;;;;;17.40;6.90;;;15.10;99.90;;;;;;5081120;27;20043;-87
2022/05/17 05:33:56;;;;;;;12.98;6.53;;;15.30;99.90;;;;;;5096467;28;20074;-87
2022/05/17 05:36:22;;;;;;;10.90;6.60;;;15.30;99.90;;;;;;5095719;28;20043;-87
2022/05/17 05:38:48;;;;;;;14.07;6.75;;;15.40;99.90;;;;;;5093355;28;20039;-88
2022/05/17 05:41:15;;;;;;;18.25;6.95;;;15.40;99.90;;;;;;5089264;28;20046;-87
2022/05/17 05:43:41;;;;;;;16.60;6.68;;;15.40;99.90;;;;;;5094693;28;21501;-88
2022/05/17 05:46:07;;;;;;;12.48;6.28;;;15.50;99.90;;;;;;5093465;28;20079;-87
2022/05/17 05:48:33;;;;;;;11.25;6.30;;;15.50;99.90;;;;;;5113253;28;20488;-87
2022/05/17 05:50:59;;;;;;;11.63;6.00;;;15.50;99.90;;;;;;5074224;28;20031;-87
2022/05/17 05:53:24;;;;;;;12.48;6.57;;;15.60;99.90;;;;;;5095507;28;20079;-87
2022/05/17 05:55:54;;;;;;;13.35;6.18;;;15.60;99.90;;;;;;5098509;28;20508;-89
2022/05/17 05:58:19;;;;;;;15.30;6.82;;;15.70;99.90;;;;;;5096048;28;20067;-88
2022/05/17 06:00:45;;;;;;;17.08;6.35;;;15.70;99.90;;;;;;5095129;28;20403;-90
2022/05/17 06:03:11;;;;;;;15.32;6.40;;;15.80;99.90;;;;;;5078116;28;20098;-89
2022/05/17 06:05:37;;;;;;;12.55;6.40;;;15.80;99.90;;;;;;5113046;28;20033;-89
2022/05/17 06:08:03;;;;;;;16.52;7.22;;;15.80;99.90;;;;;;5098498;28;20500;-90
2022/05/17 06:10:29;;;;;;;13.35;6.35;;;15.90;99.90;;;;;;5114646;28;20385;-89
2022/05/17 06:12:55;;;;;;;12.43;5.88;;;15.90;99.90;;;;;;5097781;28;20040;-89
2022/05/17 06:15:21;;;;;;;15.32;6.47;;;16.00;99.90;;;;;;5116440;28;20043;-89
2022/05/17 06:17:47;;;;;;;13.10;6.10;;;16.00;99.90;;;;;;5097014;28;20093;-89
2022/05/17 06:20:14;;;;;;;13.18;6.47;;;16.10;99.90;;;;;;5099667;28;20046;-89
2022/05/17 06:22:40;;;;;;;14.13;6.22;;;16.10;99.90;;;;;;5113262;28;20118;-87
2022/05/17 06:25:07;;;;;;;14.80;6.60;;;16.20;99.90;;;;;;5093528;28;20047;-86
2022/05/17 06:27:32;;;;;;;17.08;6.43;;;16.30;99.90;;;;;;5094998;28;20032;-88
2022/05/17 06:29:58;;;;;;;15.60;6.82;;;16.40;99.90;;;;;;5078346;28;20109;-88
2022/05/17 06:32:24;;;;;;;14.98;6.97;;;16.60;99.90;;;;;;5098712;27;20042;-87
2022/05/17 06:34:50;;;;;;;16.40;6.72;;;16.70;99.90;;;;;;5098216;27;20036;-88
2022/05/17 06:37:15;;;;;;;15.25;7.25;;;16.80;99.90;;;;;;5087713;27;20092;-86
2022/05/17 06:39:42;;;;;;;16.33;6.30;;;17.00;99.90;;;;;;5094014;27;20122;-81
2022/05/17 06:42:08;;;;;;;11.82;5.90;;;17.20;99.90;;;;;;5114668;27;20042;-85
2022/05/17 06:44:37;;;;;;;9.93;5.45;;;17.50;99.90;;;;;;5097311;27;20482;-88
2022/05/17 06:47:03;;;;;;;13.30;5.22;;;17.90;99.90;;;;;;5112069;27;20043;-88
2022/05/17 06:49:29;;;;;;;12.38;4.70;;;18.30;99.90;;;;;;5115725;27;20391;-88
2022/05/17 06:51:57;;;;;;;13.57;4.90;;;18.60;99.90;;;;;;5097947;27;20031;-88
2022/05/17 06:54:24;;;;;;;11.77;4.60;;;18.70;99.90;;;;;;5117543;27;20034;-88
2022/05/17 06:56:49;;;;;;;12.35;3.90;;;18.70;99.90;;;;;;5094473;27;20096;-89
2022/05/17 06:59:15;;;;;;;9.65;4.07;;;18.80;99.90;;;;;;5117199;27;20043;-88
2022/05/17 07:01:41;;;;;;;10.73;3.85;;;18.90;99.90;;;;;;5081888;27;20045;-88
2022/05/17 07:04:07;;;;;;;10.63;4.25;;;18.90;99.90;;;;;;5115103;27;20544;-85
2022/05/17 07:06:32;;;;;;;13.95;4.35;;;19.00;99.90;;;;;;5096408;27;20046;-87
2022/05/17 07:08:58;;;;;;;13.10;4.00;;;19.20;99.90;;;;;;5097395;27;20037;-84
2022/05/17 07:14:08;;;;;;;14.60;3.95;;;19.70;99.90;;;;;;5115249;27;20038;-86
2022/05/17 07:16:33;;;;;;;14.65;4.03;;;20.10;99.90;;;;;;5114118;27;20043;-87
2022/05/17 07:18:59;;;;;;;10.63;3.78;;;20.50;99.90;;;;;;5098070;27;20043;-85
2022/05/17 07:21:25;;;;;;;11.07;3.50;;;20.80;99.90;;;;;;5115478;27;20043;-85
2022/05/17 07:23:51;;;;;;;10.40;3.78;;;21.00;99.90;;;;;;5073664;27;20111;-86
2022/05/17 07:26:17;;;;;;;10.05;3.47;;;21.30;99.90;;;;;;5079722;27;20038;-88
2022/05/17 07:28:45;;;;;;;9.18;3.50;;;21.50;99.90;;;;;;5078253;27;20039;-87
2022/05/17 07:31:12;;;;;;;10.75;4.07;;;21.70;99.90;;;;;;5113895;27;20027;-87
2022/05/17 07:33:38;;;;;;;12.15;3.80;;;21.90;99.90;;;;;;5113664;27;20520;-87
2022/05/17 07:36:05;;;;;;;20.63;4.10;;;22.00;99.90;;;;;;5114495;27;20047;-87
2022/05/17 07:38:31;;;;;;;12.02;3.67;;;22.00;99.90;;;;;;5114547;27;20111;-87
2022/05/17 07:40:57;;;;;;;18.60;3.45;;;22.00;99.90;;;;;;5096506;27;20155;-88
2022/05/17 07:43:23;;;;;;;17.23;4.47;;;22.10;99.90;;;;;;5075635;27;20039;-86
2022/05/17 07:45:52;;;;;;;12.75;3.35;;;22.30;99.90;;;;;;5098808;27;20038;-86
2022/05/17 07:48:25;;;;;;;12.07;3.50;;;22.40;99.90;;;;;;5096715;27;20057;-85
2022/05/17 07:50:51;;;;;;;11.75;3.50;;;22.50;99.90;;;;;;5111893;27;20039;-84
2022/05/17 07:53:20;;;;;;;14.43;3.33;;;22.60;99.90;;;;;;5114907;28;20092;-86
2022/05/17 07:55:47;;;;;;;10.25;3.53;;;22.70;99.90;;;;;;5114426;28;20074;-87
2022/05/17 07:58:14;;;;;;;12.85;2.97;;;22.70;99.90;;;;;;5080843;27;20039;-88
2022/05/17 08:00:42;;;;;;;11.70;4.28;;;22.70;99.90;;;;;;5078593;28;20039;-88
2022/05/17 08:03:12;;;;;;;11.07;3.28;;;22.80;99.90;;;;;;5093949;28;20044;-87
2022/05/17 08:05:39;;;;;;;11.18;3.20;;;22.80;99.90;;;;;;5095948;28;20414;-87
2022/05/17 08:08:05;;;;;;;9.57;3.17;;;22.80;99.90;;;;;;5115882;27;20444;-86
2022/05/17 08:10:31;;;;;;;11.57;3.58;;;22.80;99.90;;;;;;5098631;27;20562;-86
2022/05/17 08:12:56;;;;;;;14.48;3.40;;;22.60;99.90;;;;;;5081577;27;20039;-86
2022/05/17 08:15:23;;;;;;;9.02;3.10;;;22.40;99.90;;;;;;5076791;27;20498;-86
2022/05/17 08:17:50;;;;;;;10.80;3.38;;;22.30;99.90;;;;;;5116812;27;20043;-86
2022/05/17 08:20:18;;;;;;;14.35;3.47;;;22.30;99.90;;;;;;5114978;27;20482;-86
2022/05/17 08:22:45;;;;;;;11.88;3.63;;;22.30;99.90;;;;;;5116423;27;20047;-87
2022/05/17 08:27:59;;;;;;;12.38;2.90;;;22.30;99.90;;;;;;5115793;27;20050;-87
2022/05/17 08:30:26;;;;;;;12.63;3.00;;;22.20;99.90;;;;;;5078995;27;20062;-89
2022/05/17 08:33:16;;;;;;;13.48;3.25;;;22.10;99.90;;;;;;5102738;27;20055;-89
2022/05/17 08:35:54;;;;;;;12.30;3.00;;;22.20;99.90;;;;;;5122475;27;20046;-90
2022/05/17 08:38:27;;;;;;;8.95;2.97;;;22.20;99.90;;;;;;5102962;27;20043;-89
2022/05/17 08:41:28;;;;;;;12.10;2.55;;;22.20;99.90;;;;;;5120551;27;20475;-87
2022/05/17 08:44:04;;;;;;;18.33;3.22;;;22.30;99.90;;;;;;5121621;27;20039;-89
2022/05/17 08:46:51;;;;;;;9.73;2.40;;;22.40;99.90;;;;;;5119290;27;20034;-89
2022/05/17 08:49:21;;;;;;;11.50;2.50;;;22.40;99.90;;;;;;5101281;27;20047;-87
2022/05/17 08:51:55;;;;;;;18.45;3.38;;;22.40;99.90;;;;;;5131598;27;20031;-87
2022/05/17 08:54:34;;;;;;;11.00;2.75;;;22.40;99.90;;;;;;5103328;27;20100;-89
2022/05/17 08:57:40;;;;;;;11.95;2.30;;;22.30;99.90;;;;;;5101960;27;20097;-86
2022/05/17 09:00:09;;;;;;;32.35;4.15;;;22.20;99.60;;;;;;5058307;27;20137;-85
2022/05/17 09:02:45;;;;;;;20.52;3.10;;;22.10;99.90;;;;;;5118430;27;20399;-85
2022/05/17 09:05:23;;;;;;;13.82;2.70;;;22.10;99.90;;;;;;5115530;27;20391;-84
2022/05/17 09:08:33;;;;;;;12.90;2.80;;;22.00;99.90;;;;;;5099427;27;20036;-83
2022/05/17 09:11:22;;;;;;;23.20;2.95;;;21.90;99.60;;;;;;5095741;27;20499;-84
2022/05/17 09:14:09;;;;;;;11.63;2.75;;;21.70;99.90;;;;;;5116934;27;20058;-83
2022/05/17 09:16:38;;;;;;;11.73;2.83;;;21.60;99.90;;;;;;5098898;27;20399;-85
2022/05/17 09:19:04;;;;;;;20.27;3.10;;;21.50;99.90;;;;;;5100509;27;20390;-84
2022/05/17 09:21:39;;;;;;;8.68;2.47;;;21.40;99.90;;;;;;5096699;27;20046;-83
2022/05/17 09:24:10;;;;;;;61.67;5.43;;;21.30;99.90;;;;;;5109803;27;20380;-84
2022/05/17 09:26:37;;;;;;;11.32;2.85;;;21.20;99.90;;;;;;5107919;28;20040;-84
2022/05/17 09:29:03;;;;;;;16.55;2.92;;;21.20;99.90;;;;;;5099761;27;20032;-84
2022/05/17 09:31:33;;;;;;;13.23;2.67;;;21.10;99.90;;;;;;5121079;27;20092;-84
2022/05/17 09:34:02;;;;;;;10.52;2.85;;;21.20;99.90;;;;;;5115462;27;20063;-84
2022/05/17 09:36:52;;;;;;;17.00;3.53;;;21.10;99.90;;;;;;5128243;27;20047;-83
2022/05/17 09:39:23;;;;;;;12.95;2.53;;;21.20;99.90;;;;;;5126796;27;20050;-84
2022/05/17 09:41:50;;;;;;;15.02;2.92;;;21.20;99.90;;;;;;5138272;27;20027;-83
2022/05/17 09:44:23;;;;;;;11.48;3.00;;;21.30;99.90;;;;;;5083143;27;20031;-83
2022/05/17 09:46:54;;;;;;;18.48;3.38;;;21.30;99.90;;;;;;5113562;27;20050;-83
2022/05/17 09:52:32;;;;;;;11.23;3.08;;;21.40;99.90;;;;;;5115236;27;20065;-84
2022/05/17 09:55:22;;;;;;;13.52;3.13;;;21.40;99.90;;;;;;5103861;27;20027;-84
2022/05/17 09:57:50;;;;;;;13.23;3.13;;;21.40;99.90;;;;;;5115079;27;20032;-83
2022/05/17 10:00:30;;;;;;;11.00;3.08;;;21.30;99.90;;;;;;5096748;27;20467;-81
2022/05/17 10:03:06;;;;;;;9.48;2.88;;;21.30;99.90;;;;;;5097666;27;20028;-84
2022/05/17 10:05:40;;;;;;;11.10;2.90;;;21.30;99.90;;;;;;5115506;27;20043;-82
2022/05/17 10:08:12;;;;;;;14.63;3.08;;;21.20;99.90;;;;;;5114226;27;20613;-83
2022/05/17 10:10:47;;;;;;;11.32;2.92;;;21.10;99.90;;;;;;5114181;27;20719;-83
2022/05/17 10:13:26;;;;;;;36.08;4.65;;;21.10;99.90;;;;;;5105674;27;20534;-84
2022/05/17 10:15:57;;;;;;;13.68;3.45;;;21.10;99.90;;;;;;5097069;27;20038;-83
2022/05/17 10:18:33;;;;;;;60.15;5.50;;;21.20;99.90;;;;;;5117638;27;20118;-83
2022/05/17 10:21:04;;;;;;;;;;;21.30;99.90;;;;;;5114309;27;20035;-83
2022/05/17 10:23:35;;;;;;;11.05;3.20;;;21.40;99.90;;;;;;5111060;27;19915;-81
2022/05/17 10:26:08;;;;;;;11.98;3.10;;;21.40;99.90;;;;;;5114876;27;20039;-82
2022/05/17 10:28:52;;;;;;;14.30;3.03;;;21.50;99.90;;;;;;5133503;27;20035;-83
2022/05/17 10:31:23;;;;;;;11.50;3.13;;;21.50;99.90;;;;;;5097860;27;20039;-84
2022/05/17 10:34:13;;;;;;;12.55;3.70;;;21.50;99.90;;;;;;5130857;27;20048;-82
2022/05/17 10:36:50;;;;;;;15.15;3.83;;;21.50;99.90;;;;;;5113905;27;20131;-82
2022/05/17 10:39:28;;;;;;;16.13;3.70;;;21.50;99.90;;;;;;5115904;27;20129;-81
2022/05/17 10:41:55;;;;;;;9.77;3.35;;;21.60;99.90;;;;;;5097162;27;20082;-82
2022/05/17 10:44:22;;;;;;;12.82;3.70;;;21.50;99.90;;;;;;5115111;27;20035;-81
2022/05/17 10:46:57;;;;;;;10.32;3.17;;;21.60;99.90;;;;;;5098388;27;20955;-81
2022/05/17 10:49:54;;;;;;;11.37;2.90;;;21.60;99.90;;;;;;5114059;27;20067;-81
2022/05/17 10:52:34;;;;;;;11.40;3.75;;;21.60;99.90;;;;;;5108273;27;20059;-82
2022/05/17 10:55:08;;;;;;;12.23;3.13;;;21.60;99.90;;;;;;5113874;27;20042;-81
2022/05/17 10:57:49;;;;;;;10.65;3.38;;;21.60;99.90;;;;;;5114976;27;20031;-83
2022/05/17 11:00:23;;;;;;;12.82;3.42;;;21.60;99.90;;;;;;5114068;27;20035;-83
2022/05/17 11:03:14;;;;;;;13.15;3.60;;;21.70;99.90;;;;;;5114525;27;20057;-83
2022/05/17 11:05:53;;;;;;;12.43;3.22;;;21.80;99.90;;;;;;5096962;27;20122;-82
2022/05/17 11:08:40;;;;;;;13.43;4.25;;;21.80;99.90;;;;;;5096340;27;20050;-82
2022/05/17 11:11:28;;;;;;;12.23;3.72;;;21.70;99.90;;;;;;5114315;27;20425;-82
2022/05/17 11:14:01;;;;;;;15.38;4.47;;;21.70;99.90;;;;;;5115784;27;20108;-83
2022/05/17 11:16:50;;;;;;;12.10;4.05;;;21.60;99.90;;;;;;5102883;27;20043;-82
2022/05/17 11:19:38;;;;;;;11.32;3.60;;;21.70;99.90;;;;;;5095890;27;20468;-83
2022/05/17 11:22:17;;;;;;;14.52;4.00;;;21.70;99.90;;;;;;5101802;27;20085;-82
2022/05/17 11:25:08;;;;;;;15.60;4.60;;;21.60;99.90;;;;;;5097106;27;20502;-83
2022/05/17 11:27:48;;;;;;;11.70;4.40;;;21.50;99.90;;;;;;5114437;27;20134;-83
2022/05/17 11:30:28;;;;;;;11.38;4.47;;;21.40;99.90;;;;;;5114857;27;20071;-83
2022/05/17 11:33:09;;;;;;;13.85;4.00;;;21.40;99.90;;;;;;5113127;27;20618;-82
2022/05/17 11:35:46;;;;;;;11.32;4.70;;;21.30;99.90;;;;;;5114602;27;20043;-82
2022/05/17 11:38:31;;;;;;;14.00;4.40;;;21.20;99.90;;;;;;5130157;27;20533;-82
2022/05/17 11:41:03;;;;;;;14.13;4.30;;;21.00;99.90;;;;;;5096223;27;20050;-81
2022/05/17 11:43:43;;;;;;;10.43;3.90;;;20.90;99.90;;;;;;5111039;28;20509;-81
2022/05/17 11:46:24;;;;;;;13.82;4.03;;;20.80;99.90;;;;;;5112267;27;20511;-82
2022/05/17 11:49:12;;;;;;;9.70;4.07;;;20.80;99.90;;;;;;5093221;28;20124;-81
2022/05/17 11:51:56;;;;;;;10.18;3.70;;;20.70;99.90;;;;;;5111357;28;20032;-82
2022/05/17 11:54:45;;;;;;;14.70;4.55;;;20.70;99.90;;;;;;5111730;28;20041;-81
2022/05/17 11:57:12;;;;;;;14.77;5.32;;;20.80;99.90;;;;;;5111227;27;20043;-80
2022/05/17 11:59:41;;;;;;;11.45;3.92;;;20.80;99.90;;;;;;5112348;28;20043;-82
2022/05/17 12:02:11;;;;;;;12.88;4.68;;;20.90;99.90;;;;;;5095231;28;20086;-82
2022/05/17 12:04:42;;;;;;;13.27;4.43;;;21.00;99.90;;;;;;5110737;28;20095;-81
2022/05/17 12:07:24;;;;;;;12.45;4.43;;;21.10;99.90;;;;;;5093224;27;20045;-81
2022/05/17 12:09:52;;;;;;;9.77;3.72;;;21.20;99.90;;;;;;5111672;28;20054;-82
2022/05/17 12:12:46;;;;;;;15.60;4.10;;;21.30;99.90;;;;;;5113163;28;20567;-83
2022/05/17 12:15:32;;;;;;;13.40;3.75;;;21.40;99.90;;;;;;5113886;28;20063;-83
2022/05/17 12:18:28;;;;;;;14.77;4.10;;;21.50;99.90;;;;;;5096628;28;20521;-83
2022/05/17 12:21:10;;;;;;;;;;;21.60;99.90;;;;;;5114760;28;20039;-83
2022/05/17 12:23:45;;;;;;;11.52;4.20;;;21.50;99.90;;;;;;5096335;28;19919;-83
2022/05/17 12:26:23;;;;;;;13.83;3.60;;;21.60;99.90;;;;;;5113430;28;20048;-83
2022/05/17 12:28:53;;;;;;;9.55;3.25;;;21.70;99.90;;;;;;5094936;28;20506;-83
2022/05/17 12:31:25;;;;;;;8.95;3.35;;;22.00;99.90;;;;;;5114605;28;20118;-84
2022/05/17 12:33:53;;;;;;;11.73;3.38;;;22.10;99.90;;;;;;5094649;28;20075;-83
2022/05/17 12:36:23;;;;;;;10.13;2.83;;;22.10;99.90;;;;;;5093155;28;20056;-82
2022/05/17 12:44:44;;;;;;;11.25;4.00;;;22.40;99.90;;;;;;5129033;28;20047;-83
2022/05/17 12:47:18;;;;;;;8.20;3.10;;;22.70;99.90;;;;;;5096352;28;20423;-85
2022/05/17 12:49:52;;;;;;;8.98;3.28;;;23.10;99.90;;;;;;5114318;28;20039;-85
2022/05/17 12:52:35;;;;;;;9.80;3.20;;;23.60;99.90;;;;;;5111729;28;20058;-84
2022/05/17 12:55:07;;;;;;;10.93;3.70;;;23.90;99.90;;;;;;5118061;27;20075;-84
2022/05/17 12:57:35;;;;;;;10.40;3.30;;;24.20;99.50;;;;;;5100947;27;20235;-84
2022/05/17 13:00:22;;;;;;;7.70;3.00;;;24.30;99.40;;;;;;5101889;27;20054;-85
2022/05/17 13:02:51;;;;;;;9.52;3.08;;;24.70;99.00;;;;;;5099658;27;20130;-84
2022/05/17 13:05:24;;;;;;;12.80;3.30;;;25.10;98.10;;;;;;5116798;27;20054;-84
2022/05/17 13:08:10;;;;;;;12.00;3.40;;;25.30;98.50;;;;;;5116796;27;20046;-82
2022/05/17 13:10:38;;;;;;;11.38;3.22;;;25.60;96.70;;;;;;5114877;27;20027;-85
2022/05/17 13:13:19;;;;;;;7.75;3.13;;;26.00;97.00;;;;;;5115785;27;20399;-81